TAF Text Data
IDs:
Format:
Raw Decoded Include METAR

Data at: 0435 UTC 20 Sep 2020

KDCA 200352Z 01003KT 10SM FEW250 13/06 A3038 RMK AO2 SLP287 T01280061

KDCA 192322Z 2000/2106 04008KT P6SM SCT250
  FM200900 01005KT P6SM SKC
  FM201400 04007KT P6SM SKC
  FM210500 VRB03KT P6SM SKC